createdAt,value
2017-12-29T00:01:49.574Z,99739.15
2017-12-29T00:04:18.458Z,99738.16
2017-12-29T00:06:46.754Z,99746.07
2017-12-29T00:09:15.221Z,99745.27
2017-12-29T00:11:43.498Z,99747.25
2017-12-29T00:14:12.213Z,99755.41
2017-12-29T00:16:40.528Z,99754.79
2017-12-29T00:19:09.442Z,99768.89
2017-12-29T00:21:38.122Z,99758.48
2017-12-29T00:24:08.478Z,99759.52
2017-12-29T00:26:37.053Z,99758.16
2017-12-29T00:29:06.015Z,99764.49
2017-12-29T00:31:34.347Z,99762.45
2017-12-29T00:34:02.599Z,99753.08
2017-12-29T00:36:30.915Z,99753.27
2017-12-29T00:38:59.175Z,99767.42
2017-12-29T00:41:27.529Z,99767.82
2017-12-29T00:43:56.348Z,99764.64
2017-12-29T00:46:24.736Z,99772.00
2017-12-29T00:48:54.151Z,99773.39
2017-12-29T00:51:23.955Z,99773.58
2017-12-29T00:53:53.762Z,99778.70
2017-12-29T00:56:24.217Z,99785.47
2017-12-29T00:58:53.367Z,99786.50
2017-12-29T01:01:24.575Z,99791.00
2017-12-29T01:03:53.302Z,99793.23
2017-12-29T01:06:21.639Z,99796.38
2017-12-29T01:08:49.883Z,99799.97
2017-12-29T01:11:18.159Z,99793.78
2017-12-29T01:13:46.431Z,99802.34
2017-12-29T01:16:14.726Z,99801.54
2017-12-29T01:18:43.067Z,99812.78
2017-12-29T01:21:11.354Z,99808.72
2017-12-29T01:23:39.627Z,99809.84
2017-12-29T01:26:07.907Z,99805.45
2017-12-29T01:28:36.380Z,99819.55
2017-12-29T01:31:04.674Z,99820.80
2017-12-29T01:33:33.196Z,99811.68
2017-12-29T01:36:01.672Z,99812.13
2017-12-29T01:38:29.935Z,99814.46
2017-12-29T01:40:59.578Z,99814.65
2017-12-29T01:43:28.450Z,99807.29
2017-12-29T01:45:57.081Z,99813.47
2017-12-29T01:48:25.392Z,99807.10
2017-12-29T01:50:54.059Z,99808.82
2017-12-29T01:53:22.324Z,99814.02
2017-12-29T01:55:51.598Z,99809.08
2017-12-29T01:58:20.078Z,99821.41
2017-12-29T02:00:48.399Z,99828.15
2017-12-29T02:03:17.650Z,99830.27
2017-12-29T02:05:46.225Z,99827.49
2017-12-29T02:08:14.483Z,99827.30
2017-12-29T02:10:42.775Z,99841.17
2017-12-29T02:13:11.470Z,99829.88
2017-12-29T02:15:39.759Z,99834.59
2017-12-29T02:18:08.083Z,99840.55
2017-12-29T02:20:36.638Z,99838.58
2017-12-29T02:23:04.915Z,99838.94
2017-12-29T02:25:33.314Z,99839.38
2017-12-29T02:28:01.818Z,99850.87
2017-12-29T02:30:30.256Z,99850.87
2017-12-29T02:32:58.582Z,99860.16
2017-12-29T02:35:27.074Z,99863.75
2017-12-29T02:37:55.340Z,99868.51
2017-12-29T02:40:23.618Z,99874.25
2017-12-29T02:42:51.887Z,99875.60
2017-12-29T02:45:20.178Z,99879.00
2017-12-29T02:47:48.825Z,99884.13
2017-12-29T02:50:17.688Z,99889.33
2017-12-29T02:52:47.198Z,99902.42
2017-12-29T02:55:15.539Z,99894.09
2017-12-29T02:57:44.678Z,99901.04
2017-12-29T03:00:13.101Z,99894.88
2017-12-29T03:02:41.391Z,99898.66
2017-12-29T03:05:09.870Z,99908.98
2017-12-29T03:07:38.323Z,99907.99
2017-12-29T03:10:06.614Z,99914.95
2017-12-29T03:12:34.894Z,99912.79
2017-12-29T03:15:03.157Z,99912.96
2017-12-29T03:17:31.470Z,99918.08
2017-12-29T03:19:59.726Z,99920.32
2017-12-29T03:22:28.047Z,99919.47
2017-12-29T03:24:56.360Z,99920.06
2017-12-29T03:27:24.663Z,99922.62
2017-12-29T03:29:52.944Z,99921.22
2017-12-29T03:32:22.143Z,99932.75
2017-12-29T03:34:50.591Z,99932.26
2017-12-29T03:37:18.924Z,99925.70
2017-12-29T03:39:47.504Z,99932.61
2017-12-29T03:42:15.899Z,99931.34
2017-12-29T03:44:44.195Z,99926.91
2017-12-29T03:47:12.606Z,99926.32
2017-12-29T03:49:41.576Z,99928.38
2017-12-29T03:52:10.187Z,99934.75
2017-12-29T03:54:38.442Z,99939.19
2017-12-29T03:57:07.633Z,99945.82
2017-12-29T03:59:36.525Z,99937.88
2017-12-29T04:02:06.054Z,99947.84
2017-12-29T04:04:36.125Z,99947.58
2017-12-29T04:07:04.818Z,99955.30
2017-12-29T04:09:33.812Z,99947.36
2017-12-29T04:12:02.538Z,99949.92
2017-12-29T04:14:31.239Z,99955.66
2017-12-29T04:17:00.752Z,99961.27
2017-12-29T04:19:29.098Z,99968.80
2017-12-29T04:21:58.166Z,99961.45
2017-12-29T04:24:29.358Z,99970.97
2017-12-29T04:26:58.530Z,99964.55
2017-12-29T04:29:26.830Z,99975.45
2017-12-29T04:31:55.358Z,99973.48
2017-12-29T04:34:24.323Z,99971.69
2017-12-29T04:36:52.607Z,99973.27
2017-12-29T04:39:20.910Z,99976.00
2017-12-29T04:41:49.389Z,99977.17
2017-12-29T04:44:18.207Z,99971.42
2017-12-29T04:46:47.712Z,99977.98
2017-12-29T04:49:16.626Z,99982.73
2017-12-29T04:51:45.365Z,99981.34
2017-12-29T04:54:14.181Z,99981.66
2017-12-29T04:56:43.803Z,99988.02
2017-12-29T04:59:12.665Z,99998.12
2017-12-29T05:01:41.750Z,100004.23
2017-12-29T05:04:10.005Z,99996.59
2017-12-29T05:06:38.763Z,99998.58
2017-12-29T05:09:07.833Z,100010.29
2017-12-29T05:11:36.189Z,100006.11
2017-12-29T05:14:04.890Z,100015.66
2017-12-29T05:16:33.194Z,100018.00
2017-12-29T05:19:02.836Z,100012.62
2017-12-29T05:21:32.594Z,100014.59
2017-12-29T05:24:01.325Z,100014.58
2017-12-29T05:26:29.822Z,100021.19
2017-12-29T05:28:58.139Z,100019.73
2017-12-29T05:31:26.575Z,100024.31
2017-12-29T05:33:55.562Z,100021.71
2017-12-29T05:36:24.953Z,100024.05
2017-12-29T05:38:53.332Z,100022.25
2017-12-29T05:41:22.690Z,100023.24
2017-12-29T05:43:52.028Z,100027.41
2017-12-29T05:46:21.459Z,100023.81
2017-12-29T05:48:49.987Z,100029.84
2017-12-29T05:51:18.303Z,100029.43
2017-12-29T05:53:46.631Z,100025.26
2017-12-29T05:56:14.930Z,100031.81
2017-12-29T05:58:43.647Z,100034.37
2017-12-29T06:01:12.179Z,100035.53
2017-12-29T06:03:41.087Z,100035.53
2017-12-29T06:06:09.934Z,100038.66
2017-12-29T06:08:38.236Z,100029.34
2017-12-29T06:11:07.172Z,100032.07
2017-12-29T06:13:36.255Z,100035.84
2017-12-29T06:16:05.608Z,100032.30
2017-12-29T06:18:34.144Z,100035.66
2017-12-29T06:21:02.718Z,100037.22
2017-12-29T06:23:30.994Z,100036.69
2017-12-29T06:25:59.350Z,100034.66
2017-12-29T06:28:28.806Z,100044.35
2017-12-29T06:30:57.555Z,100043.45
2017-12-29T06:33:26.623Z,100041.66
2017-12-29T06:35:54.962Z,100042.70
2017-12-29T06:38:23.290Z,100044.35
2017-12-29T06:40:52.490Z,100055.17
2017-12-29T06:43:21.152Z,100051.39
2017-12-29T06:45:49.679Z,100060.34
2017-12-29T06:48:18.206Z,100062.12
2017-12-29T06:50:46.610Z,100070.86
2017-12-29T06:53:14.993Z,100071.00
2017-12-29T06:55:43.275Z,100074.98
2017-12-29T06:58:11.559Z,100073.42
2017-12-29T07:00:39.866Z,100078.98
2017-12-29T07:03:08.159Z,100066.83
2017-12-29T07:05:36.515Z,100062.64
2017-12-29T07:08:04.811Z,100071.92
2017-12-29T07:10:33.119Z,100074.98
2017-12-29T07:13:01.411Z,100081.54
2017-12-29T07:15:29.723Z,100083.51
2017-12-29T07:17:58.027Z,100085.94
2017-12-29T07:20:26.350Z,100091.31
2017-12-29T07:22:54.630Z,100093.33
2017-12-29T07:25:22.930Z,100097.34
2017-12-29T07:27:51.219Z,100099.03
2017-12-29T07:30:19.546Z,100093.83
2017-12-29T07:32:47.867Z,100087.09
2017-12-29T07:35:16.181Z,100086.34
2017-12-29T07:37:44.442Z,100088.13
2017-12-29T07:40:12.749Z,100089.17
2017-12-29T07:42:41.130Z,100092.77
2017-12-29T07:45:09.414Z,100098.73
2017-12-29T07:47:37.730Z,100102.27
2017-12-29T07:50:06.079Z,100106.75
2017-12-29T07:52:34.510Z,100110.34
2017-12-29T07:55:02.774Z,100105.59
2017-12-29T07:57:31.122Z,100109.75
2017-12-29T07:59:59.373Z,100112.72
2017-12-29T08:02:27.727Z,100115.02
2017-12-29T08:04:56.026Z,100121.74
2017-12-29T08:07:24.351Z,100126.66
2017-12-29T08:09:52.619Z,100131.95
2017-12-29T08:12:21.168Z,100137.56
2017-12-29T08:14:49.470Z,100134.24
2017-12-29T08:17:17.939Z,100139.00
2017-12-29T08:19:46.221Z,100141.33
2017-12-29T08:22:14.572Z,100147.17
2017-12-29T08:24:42.859Z,100153.14
2017-12-29T08:27:11.205Z,100153.80
2017-12-29T08:29:39.520Z,100155.51
2017-12-29T08:32:08.088Z,100158.48
2017-12-29T08:34:36.738Z,100159.37
2017-12-29T08:37:05.041Z,100164.58
2017-12-29T08:39:33.310Z,100166.14
2017-12-29T08:42:01.636Z,100169.95
2017-12-29T08:44:29.934Z,100172.13
2017-12-29T08:46:58.327Z,100176.21
2017-12-29T08:49:26.599Z,100176.61
2017-12-29T08:51:54.915Z,100181.41
2017-12-29T08:54:23.256Z,100182.50
2017-12-29T08:56:51.560Z,100189.53
2017-12-29T08:59:19.834Z,100195.12
2017-12-29T09:01:48.134Z,100191.08
2017-12-29T09:04:17.129Z,100201.86
2017-12-29T09:06:45.579Z,100203.66
2017-12-29T09:09:13.882Z,100200.06
2017-12-29T09:11:42.200Z,100206.48
2017-12-29T09:14:10.535Z,100206.50
2017-12-29T09:16:38.855Z,100198.09
2017-12-29T09:19:07.170Z,100206.39
2017-12-29T09:21:35.523Z,100207.91
2017-12-29T09:24:03.825Z,100205.61
2017-12-29T09:26:32.107Z,100208.78
2017-12-29T09:29:00.395Z,100204.47
2017-12-29T09:31:28.879Z,100203.80
2017-12-29T09:33:57.203Z,100196.72
2017-12-29T09:36:25.510Z,100200.21
2017-12-29T09:38:53.959Z,100210.27
2017-12-29T09:41:22.390Z,100203.66
2017-12-29T09:43:50.691Z,100202.63
2017-12-29T09:46:19.011Z,100201.38
2017-12-29T09:48:47.499Z,100208.10
2017-12-29T09:51:15.830Z,100204.06
2017-12-29T09:53:44.239Z,100200.20
2017-12-29T09:56:12.539Z,100188.58
2017-12-29T09:58:41.654Z,100196.20
2017-12-29T10:01:10.111Z,100195.25
2017-12-29T10:03:38.398Z,100199.69
2017-12-29T10:06:06.874Z,100194.17
2017-12-29T10:08:35.335Z,100198.55
2017-12-29T10:11:03.619Z,100193.33
2017-12-29T10:13:31.901Z,100202.79
2017-12-29T10:16:00.374Z,100198.79
2017-12-29T10:18:28.696Z,100197.57
2017-12-29T10:20:56.989Z,100193.72
2017-12-29T10:23:26.081Z,100200.73
2017-12-29T10:25:54.410Z,100191.73
2017-12-29T10:28:22.685Z,100190.48
2017-12-29T10:30:51.202Z,100191.33
2017-12-29T10:33:19.519Z,100187.16
2017-12-29T10:35:47.832Z,100183.56
2017-12-29T10:38:16.670Z,100180.82
2017-12-29T10:40:45.638Z,100176.24
2017-12-29T10:43:14.398Z,100175.12
2017-12-29T10:45:42.713Z,100177.96
2017-12-29T10:48:11.228Z,100173.70
2017-12-29T10:50:39.601Z,100179.25
2017-12-29T10:53:08.143Z,100180.21
2017-12-29T10:55:36.493Z,100185.05
2017-12-29T10:58:04.967Z,100176.61
2017-12-29T11:00:33.279Z,100168.06
2017-12-29T11:03:01.650Z,100166.92
2017-12-29T11:05:30.147Z,100166.00
2017-12-29T11:07:58.458Z,100162.03
2017-12-29T11:10:26.748Z,100162.25
2017-12-29T11:12:55.034Z,100164.89
2017-12-29T11:15:23.348Z,100164.16
2017-12-29T11:17:51.643Z,100165.55
2017-12-29T11:20:19.966Z,100159.84
2017-12-29T11:22:48.331Z,100149.43
2017-12-29T11:25:17.654Z,100136.84
2017-12-29T11:27:46.296Z,100131.45
2017-12-29T11:30:14.629Z,100131.94
2017-12-29T11:32:42.947Z,100126.39
2017-12-29T11:35:11.440Z,100124.84
2017-12-29T11:37:39.743Z,100118.12
2017-12-29T11:40:08.126Z,100109.22
2017-12-29T11:42:36.563Z,100118.61
2017-12-29T11:45:04.914Z,100114.05
2017-12-29T11:47:33.342Z,100116.50
2017-12-29T11:50:01.638Z,100116.53
2017-12-29T11:52:30.051Z,100115.17
2017-12-29T11:54:58.282Z,100113.05
2017-12-29T11:57:26.617Z,100118.94
2017-12-29T11:59:55.020Z,100105.00
2017-12-29T12:02:23.355Z,100104.17
2017-12-29T12:04:51.786Z,100102.94
2017-12-29T12:07:20.099Z,100100.58
2017-12-29T12:09:48.354Z,100097.30
2017-12-29T12:12:16.742Z,100106.20
2017-12-29T12:14:45.983Z,100098.23
2017-12-29T12:17:15.574Z,100101.86
2017-12-29T12:19:43.986Z,100102.14
2017-12-29T12:22:12.508Z,100104.41
2017-12-29T12:24:40.820Z,100107.23
2017-12-29T12:27:09.162Z,100113.64
2017-12-29T12:29:37.447Z,100121.03
2017-12-29T12:32:05.800Z,100109.02
2017-12-29T12:34:34.113Z,100114.77
2017-12-29T12:37:02.467Z,100108.59
2017-12-29T12:39:30.915Z,100115.20
2017-12-29T12:41:59.283Z,100107.33
2017-12-29T12:44:30.232Z,100114.52
2017-12-29T12:46:58.939Z,100119.60
2017-12-29T12:49:27.222Z,100118.61
2017-12-29T12:51:55.774Z,100119.69
2017-12-29T12:54:24.022Z,100115.79
2017-12-29T12:56:52.303Z,100123.57
2017-12-29T12:59:20.550Z,100123.72
2017-12-29T13:01:48.858Z,100118.11
2017-12-29T13:04:17.122Z,100124.13
2017-12-29T13:06:45.439Z,100122.48
2017-12-29T13:09:13.854Z,100116.66
2017-12-29T13:11:42.163Z,100119.09
2017-12-29T13:14:10.411Z,100124.17
2017-12-29T13:16:38.701Z,100125.72
2017-12-29T13:19:07.059Z,100130.12
2017-12-29T13:21:35.428Z,100124.23
2017-12-29T13:24:03.722Z,100126.30
2017-12-29T13:26:32.103Z,100131.96
2017-12-29T13:29:00.407Z,100130.94
2017-12-29T13:31:28.703Z,100128.63
2017-12-29T13:33:57.647Z,100131.45
2017-12-29T13:36:25.975Z,100124.40
2017-12-29T13:38:54.304Z,100131.36
2017-12-29T13:41:22.674Z,100126.56
2017-12-29T13:43:51.010Z,100132.78
2017-12-29T13:46:19.311Z,100131.80
2017-12-29T13:48:47.577Z,100136.36
2017-12-29T13:51:16.103Z,100136.30
2017-12-29T13:53:44.533Z,100144.44
2017-12-29T13:56:12.858Z,100142.20
2017-12-29T13:58:41.290Z,100142.97
2017-12-29T14:01:09.586Z,100151.00
2017-12-29T14:03:37.843Z,100145.45
2017-12-29T14:06:06.150Z,100146.02
2017-12-29T14:08:34.425Z,100141.49
2017-12-29T14:11:02.727Z,100149.76
2017-12-29T14:13:30.970Z,100145.90
2017-12-29T14:15:59.455Z,100145.94
2017-12-29T14:18:27.740Z,100142.31
2017-12-29T14:20:56.102Z,100145.41
2017-12-29T14:23:24.476Z,100147.86
2017-12-29T14:25:52.801Z,100144.27
2017-12-29T14:28:21.110Z,100137.70
2017-12-29T14:30:49.412Z,100138.55
2017-12-29T14:33:17.698Z,100145.92
2017-12-29T14:35:46.018Z,100137.11
2017-12-29T14:38:14.307Z,100138.33
2017-12-29T14:40:42.599Z,100137.48
2017-12-29T14:43:10.862Z,100141.80
2017-12-29T14:45:39.187Z,100136.34
2017-12-29T14:48:07.526Z,100141.54
2017-12-29T14:50:35.886Z,100145.72
2017-12-29T14:53:04.137Z,100136.83
2017-12-29T14:55:32.417Z,100140.57
2017-12-29T14:58:00.718Z,100135.84
2017-12-29T15:00:29.142Z,100137.64
2017-12-29T15:02:57.402Z,100135.18
2017-12-29T15:05:25.734Z,100130.64
2017-12-29T15:07:54.018Z,100137.11
2017-12-29T15:10:22.347Z,100142.37
2017-12-29T15:12:50.656Z,100135.54
2017-12-29T15:15:18.950Z,100137.73
2017-12-29T15:17:47.238Z,100136.30
2017-12-29T15:20:15.527Z,100137.03
2017-12-29T15:22:43.824Z,100138.41
2017-12-29T15:25:12.143Z,100141.03
2017-12-29T15:27:40.452Z,100141.97
2017-12-29T15:30:08.756Z,100140.12
2017-12-29T15:32:37.039Z,100145.78
2017-12-29T15:35:05.511Z,100141.30
2017-12-29T15:37:33.815Z,100148.71
2017-12-29T15:40:02.272Z,100143.77
2017-12-29T15:42:30.646Z,100147.40
2017-12-29T15:44:59.010Z,100149.25
2017-12-29T15:47:27.516Z,100148.61
2017-12-29T15:49:55.969Z,100156.91
2017-12-29T15:52:24.293Z,100149.09
2017-12-29T15:54:52.562Z,100146.97
2017-12-29T15:57:20.943Z,100149.75
2017-12-29T15:59:49.211Z,100148.94
2017-12-29T16:02:17.514Z,100141.48
2017-12-29T16:04:45.769Z,100134.95
2017-12-29T16:07:14.259Z,100131.11
2017-12-29T16:09:42.508Z,100128.35
2017-12-29T16:12:10.915Z,100134.73
2017-12-29T16:14:39.185Z,100125.37
2017-12-29T16:17:07.512Z,100113.47
2017-12-29T16:19:35.883Z,100115.33
2017-12-29T16:22:04.571Z,100120.78
2017-12-29T16:24:33.992Z,100128.65
2017-12-29T16:27:02.358Z,100123.15
2017-12-29T16:29:30.667Z,100124.66
2017-12-29T16:31:59.151Z,100120.31
2017-12-29T16:34:28.655Z,100110.94
2017-12-29T16:36:57.272Z,100110.59
2017-12-29T16:39:26.005Z,100110.40
2017-12-29T16:41:55.447Z,100111.67
2017-12-29T16:44:24.272Z,100107.13
2017-12-29T16:46:52.931Z,100097.42
2017-12-29T16:49:21.215Z,100098.54
2017-12-29T16:51:49.525Z,100099.94
2017-12-29T16:54:17.803Z,100104.34
2017-12-29T16:56:46.306Z,100105.56
2017-12-29T16:59:14.631Z,100102.58
2017-12-29T17:01:42.935Z,100098.67
2017-12-29T17:04:11.302Z,100097.71
2017-12-29T17:06:39.734Z,100089.87
2017-12-29T17:09:07.974Z,100085.42
2017-12-29T17:11:36.314Z,100091.58
2017-12-29T17:14:04.727Z,100089.02
2017-12-29T17:16:33.061Z,100090.63
2017-12-29T17:19:01.311Z,100089.81
2017-12-29T17:21:29.631Z,100085.63
2017-12-29T17:23:57.916Z,100081.23
2017-12-29T17:26:27.538Z,100084.14
2017-12-29T17:28:56.427Z,100071.77
2017-12-29T17:31:25.911Z,100070.59
2017-12-29T17:33:54.681Z,100071.00
2017-12-29T17:36:23.035Z,100071.48
2017-12-29T17:38:51.319Z,100062.32
2017-12-29T17:41:19.655Z,100058.50
2017-12-29T17:43:47.922Z,100049.69
2017-12-29T17:46:16.268Z,100053.38
2017-12-29T17:48:44.578Z,100048.45
2017-12-29T17:51:13.782Z,100049.30
2017-12-29T17:53:42.267Z,100043.69
2017-12-29T17:56:10.589Z,100045.23
2017-12-29T17:58:41.012Z,100035.34
2017-12-29T18:01:09.399Z,100041.33
2017-12-29T18:03:38.967Z,100036.77
2017-12-29T18:06:08.454Z,100034.54
2017-12-29T18:08:38.390Z,100037.89
2017-12-29T18:11:08.528Z,100036.55
2017-12-29T18:13:38.512Z,100039.13
2017-12-29T18:16:07.186Z,100033.27
2017-12-29T18:18:35.974Z,100028.89
2017-12-29T18:21:04.524Z,100025.81
2017-12-29T18:23:32.835Z,100026.33
2017-12-29T18:26:01.493Z,100025.17
2017-12-29T18:28:29.798Z,100021.53
2017-12-29T18:30:59.614Z,100023.54
2017-12-29T18:33:29.651Z,100020.20
2017-12-29T18:35:58.131Z,100010.05
2017-12-29T18:38:27.215Z,100016.02
2017-12-29T18:40:55.547Z,100015.66
2017-12-29T18:43:23.858Z,100014.80
2017-12-29T18:45:52.214Z,100010.97
2017-12-29T18:48:20.546Z,100017.30
2017-12-29T18:50:48.822Z,100016.09
2017-12-29T18:53:17.258Z,100021.62
2017-12-29T18:55:47.102Z,100012.20
2017-12-29T18:58:20.213Z,100019.15
2017-12-29T19:00:54.116Z,100016.83
2017-12-29T19:03:23.475Z,100011.81
2017-12-29T19:05:51.802Z,100009.83
2017-12-29T19:08:20.471Z,100007.01
2017-12-29T19:10:48.775Z,100012.95
2017-12-29T19:13:17.042Z,100005.92
2017-12-29T19:15:45.343Z,100003.11
2017-12-29T19:18:13.871Z,100008.03
2017-12-29T19:20:42.741Z,100002.05
2017-12-29T19:23:11.480Z,100002.80
2017-12-29T19:25:39.810Z,100004.72
2017-12-29T19:28:09.712Z,100008.38
2017-12-29T19:30:39.388Z,100006.48
2017-12-29T19:33:08.252Z,100003.91
2017-12-29T19:35:36.579Z,100004.58
2017-12-29T19:38:05.331Z,100006.34
2017-12-29T19:40:33.666Z,100009.13
2017-12-29T19:43:01.989Z,100007.52
2017-12-29T19:45:30.271Z,100001.07
2017-12-29T19:47:58.783Z,99998.69
2017-12-29T19:50:27.264Z,100004.66
2017-12-29T19:52:55.534Z,99996.86
2017-12-29T19:55:23.806Z,99993.70
2017-12-29T19:57:52.078Z,99996.89
2017-12-29T20:00:20.439Z,99995.13
2017-12-29T20:02:48.712Z,100001.33
2017-12-29T20:05:18.698Z,99995.91
2017-12-29T20:07:50.376Z,99993.45
2017-12-29T20:10:19.871Z,99997.44
2017-12-29T20:12:48.156Z,100000.55
2017-12-29T20:15:16.474Z,100001.14
2017-12-29T20:17:44.870Z,99997.08
2017-12-29T20:20:13.170Z,99994.36
2017-12-29T20:22:41.634Z,99994.80
2017-12-29T20:25:10.215Z,99988.14
2017-12-29T20:27:38.726Z,99984.14
2017-12-29T20:30:07.082Z,99974.35
2017-12-29T20:32:35.530Z,99973.33
2017-12-29T20:35:03.850Z,99974.88
2017-12-29T20:37:32.159Z,99973.55
2017-12-29T20:40:00.516Z,99975.85
2017-12-29T20:42:28.858Z,99972.73
2017-12-29T20:44:57.155Z,99966.05
2017-12-29T20:47:25.493Z,99969.28
2017-12-29T20:49:54.299Z,99959.91
2017-12-29T20:52:27.013Z,99964.45
2017-12-29T20:54:55.499Z,99964.56
2017-12-29T20:57:23.829Z,99964.66
2017-12-29T20:59:52.120Z,99957.33
2017-12-29T21:02:20.418Z,99957.97
2017-12-29T21:04:51.891Z,99957.65
2017-12-29T21:07:20.459Z,99955.30
2017-12-29T21:09:48.707Z,99963.91
2017-12-29T21:12:17.082Z,99960.75
2017-12-29T21:14:45.521Z,99960.75
2017-12-29T21:17:14.075Z,99960.42
2017-12-29T21:19:42.889Z,99969.81
2017-12-29T21:22:11.490Z,99969.00
2017-12-29T21:24:40.658Z,99969.44
2017-12-29T21:27:10.368Z,99976.72
2017-12-29T21:29:38.694Z,99970.11
2017-12-29T21:32:07.094Z,99971.14
2017-12-29T21:34:36.030Z,99968.96
2017-12-29T21:37:05.419Z,99969.78
2017-12-29T21:39:34.084Z,99973.39
2017-12-29T21:42:07.286Z,99964.62
2017-12-29T21:44:35.894Z,99961.42
2017-12-29T21:47:04.226Z,99971.03
2017-12-29T21:49:32.706Z,99971.21
2017-12-29T21:52:01.055Z,99967.42
2017-12-29T21:54:29.384Z,99968.06
2017-12-29T21:56:57.951Z,99961.88
2017-12-29T21:59:26.202Z,99959.30
2017-12-29T22:01:54.505Z,99964.12
2017-12-29T22:04:23.158Z,99968.48
2017-12-29T22:06:51.874Z,99973.48
2017-12-29T22:09:20.377Z,99971.94
2017-12-29T22:11:48.872Z,99977.72
2017-12-29T22:14:17.118Z,99973.13
2017-12-29T22:16:45.410Z,99978.31
2017-12-29T22:19:13.670Z,99971.72
2017-12-29T22:21:41.963Z,99964.90
2017-12-29T22:24:10.226Z,99965.94
2017-12-29T22:26:38.742Z,99961.16
2017-12-29T22:29:06.994Z,99963.57
2017-12-29T22:31:35.454Z,99971.56
2017-12-29T22:34:03.730Z,99965.76
2017-12-29T22:36:32.010Z,99964.19
2017-12-29T22:39:00.412Z,99961.59
2017-12-29T22:41:28.700Z,99962.20
2017-12-29T22:43:57.137Z,99959.41
2017-12-29T22:46:25.420Z,99953.02
2017-12-29T22:48:53.771Z,99952.80
2017-12-29T22:51:22.051Z,99957.61
2017-12-29T22:53:49.931Z,99945.42
2017-12-29T22:56:18.208Z,99947.08
2017-12-29T22:58:46.590Z,99948.48
2017-12-29T23:01:14.904Z,99954.89
2017-12-29T23:03:43.159Z,99951.30
2017-12-29T23:06:11.650Z,99948.91
2017-12-29T23:08:39.882Z,99951.51
2017-12-29T23:11:08.217Z,99957.46
2017-12-29T23:13:36.459Z,99946.30
2017-12-29T23:16:04.770Z,99947.70
2017-12-29T23:18:33.219Z,99957.20
2017-12-29T23:21:01.502Z,99953.97
2017-12-29T23:23:29.762Z,99951.64
2017-12-29T23:25:58.055Z,99955.36
2017-12-29T23:28:26.403Z,99954.91
2017-12-29T23:30:54.673Z,99950.64
2017-12-29T23:33:22.966Z,99948.94
2017-12-29T23:35:51.251Z,99953.86
2017-12-29T23:38:19.502Z,99955.41
2017-12-29T23:40:47.813Z,99966.28
2017-12-29T23:43:16.124Z,99957.83
2017-12-29T23:45:44.580Z,99954.16
2017-12-29T23:48:12.842Z,99953.94
2017-12-29T23:50:41.126Z,99961.16
2017-12-29T23:53:09.375Z,99960.30
2017-12-29T23:55:37.720Z,99956.27
2017-12-29T23:58:06.061Z,99954.63
